createdAt,value
2019-04-14T00:04:42.302Z,12.20
2019-04-14T00:09:47.538Z,11.20
2019-04-14T00:14:51.757Z,11.23
2019-04-14T00:19:56.672Z,12.07
2019-04-14T00:25:02.258Z,11.40
2019-04-14T00:30:08.055Z,12.10
2019-04-14T00:35:25.485Z,11.60
2019-04-14T00:40:34.972Z,11.43
2019-04-14T00:45:49.930Z,11.87
2019-04-14T00:50:53.967Z,12.60
2019-04-14T00:55:58.260Z,12.67
2019-04-14T01:01:02.769Z,13.03
2019-04-14T01:06:07.668Z,12.00
2019-04-14T01:11:12.009Z,12.33
2019-04-14T01:16:20.165Z,12.73
2019-04-14T01:21:22.141Z,12.50
2019-04-14T01:26:26.749Z,13.00
2019-04-14T01:31:31.695Z,13.00
2019-04-14T01:36:36.656Z,13.50
2019-04-14T01:41:41.116Z,14.97
2019-04-14T01:46:45.662Z,14.73
2019-04-14T01:52:15.268Z,13.70
2019-04-14T01:57:26.927Z,13.50
2019-04-14T02:02:31.504Z,14.87
2019-04-14T02:07:36.171Z,14.53
2019-04-14T02:12:40.973Z,14.60
2019-04-14T02:17:46.085Z,14.47
2019-04-14T02:22:50.669Z,14.77
2019-04-14T02:27:55.827Z,14.33
2019-04-14T02:33:37.741Z,14.63
2019-04-14T02:53:59.224Z,13.23
2019-04-14T03:04:01.742Z,14.40
2019-04-14T03:09:28.915Z,13.20
2019-04-14T03:14:19.709Z,14.50
2019-04-14T03:19:35.517Z,13.83
2019-04-14T03:24:37.547Z,14.13
2019-04-14T03:30:33.516Z,14.07
2019-04-14T03:35:51.122Z,13.97
2019-04-14T03:40:28.605Z,14.97
2019-04-14T03:45:46.909Z,12.50
2019-04-14T03:50:36.810Z,13.57
2019-04-14T03:55:58.470Z,14.17
2019-04-14T04:00:59.798Z,14.20
2019-04-14T04:06:05.225Z,14.10
2019-04-14T04:11:10.556Z,14.57
2019-04-14T04:16:18.099Z,13.20
2019-04-14T04:21:50.941Z,14.40
2019-04-14T04:27:09.003Z,14.67
2019-04-14T04:32:25.414Z,13.53
2019-04-14T04:37:49.742Z,14.63
2019-04-14T04:42:54.824Z,15.47
2019-04-14T04:48:00.129Z,14.53
2019-04-14T04:53:04.888Z,14.23
2019-04-14T04:58:10.061Z,13.63
2019-04-14T05:03:14.662Z,14.20
2019-04-14T05:08:19.568Z,13.90
2019-04-14T05:13:29.135Z,13.63
2019-04-14T05:18:35.548Z,14.53
2019-04-14T05:23:40.899Z,14.30
2019-04-14T05:28:46.029Z,14.93
2019-04-14T05:33:51.188Z,13.83
2019-04-14T05:38:55.974Z,14.47
2019-04-14T05:44:02.043Z,14.27
2019-04-14T05:49:06.553Z,14.23
2019-04-14T05:54:12.045Z,13.53
2019-04-14T05:59:16.389Z,13.00
2019-04-14T06:04:20.573Z,11.67
2019-04-14T06:09:25.171Z,11.33
2019-04-14T06:14:29.392Z,10.80
2019-04-14T06:19:39.061Z,10.17
2019-04-14T06:24:40.048Z,10.93
2019-04-14T06:29:44.266Z,10.27
2019-04-14T06:35:10.280Z,10.17
2019-04-14T06:40:14.483Z,10.27
2019-04-14T06:45:18.681Z,10.80
2019-04-14T06:50:22.889Z,10.53
2019-04-14T06:55:27.202Z,11.23
2019-04-14T07:00:31.403Z,11.10
2019-04-14T07:05:35.598Z,11.60
2019-04-14T07:10:39.783Z,11.03
2019-04-14T07:15:43.985Z,11.90
2019-04-14T07:20:48.193Z,12.03
2019-04-14T07:25:52.418Z,12.53
2019-04-14T07:31:14.155Z,11.80
2019-04-14T07:36:37.553Z,12.43
2019-04-14T07:41:55.819Z,13.03
2019-04-14T07:47:21.748Z,12.23
2019-04-14T07:52:33.664Z,13.23
2019-04-14T07:57:56.814Z,13.30
2019-04-14T08:03:14.543Z,13.53
2019-04-14T08:08:18.750Z,14.13
2019-04-14T08:13:25.960Z,14.37
2019-04-14T08:18:30.161Z,14.57
2019-04-14T08:23:34.421Z,15.43
2019-04-14T08:28:38.612Z,14.77
2019-04-14T08:33:42.827Z,16.80
2019-04-14T08:38:47.036Z,15.40
2019-04-14T08:44:10.196Z,16.67
2019-04-14T08:49:27.418Z,16.67
2019-04-14T08:54:54.438Z,16.53
2019-04-14T09:00:26.791Z,15.43
2019-04-14T09:05:53.257Z,15.77
2019-04-14T09:10:59.528Z,16.47
2019-04-14T09:16:03.745Z,14.70
2019-04-14T09:21:07.958Z,15.43
2019-04-14T09:26:12.180Z,16.70
2019-04-14T09:31:16.407Z,15.37
2019-04-14T09:36:20.592Z,15.70
2019-04-14T09:41:24.797Z,15.87
2019-04-14T09:46:29.067Z,16.13
2019-04-14T09:51:33.310Z,15.97
2019-04-14T09:56:37.509Z,15.23
2019-04-14T10:01:41.709Z,15.83
2019-04-14T10:06:45.942Z,16.27
2019-04-14T10:11:54.695Z,15.80
2019-04-14T10:16:56.166Z,16.00
2019-04-14T10:22:00.428Z,15.90
2019-04-14T10:27:04.664Z,15.37
2019-04-14T10:32:08.868Z,16.17
2019-04-14T10:37:13.157Z,15.80
2019-04-14T10:42:17.334Z,16.13
2019-04-14T10:47:21.643Z,16.27
2019-04-14T10:52:25.912Z,16.03
2019-04-14T10:57:30.140Z,16.33
2019-04-14T11:02:34.453Z,15.53
2019-04-14T11:07:38.677Z,15.73
2019-04-14T11:12:43.028Z,16.10
2019-04-14T11:17:47.420Z,15.37
2019-04-14T11:23:02.753Z,18.43
2019-04-14T11:27:57.630Z,16.90
2019-04-14T11:33:13.519Z,14.90
2019-04-14T11:38:33.060Z,14.87
2019-04-14T11:43:37.292Z,14.73
2019-04-14T11:48:41.510Z,13.93
2019-04-14T11:53:45.716Z,13.17
2019-04-14T11:58:49.972Z,13.30
2019-04-14T12:04:13.160Z,13.90
2019-04-14T12:09:20.783Z,13.33
2019-04-14T12:14:24.993Z,13.93
2019-04-14T12:19:29.252Z,13.53
2019-04-14T12:24:33.528Z,13.07
2019-04-14T12:29:38.949Z,13.80
2019-04-14T12:34:43.906Z,14.23
2019-04-14T12:39:48.432Z,13.63
2019-04-14T12:45:17.746Z,13.03
2019-04-14T12:50:29.009Z,12.03
2019-04-14T12:55:33.245Z,13.73
2019-04-14T13:01:05.572Z,13.17
2019-04-14T13:06:09.783Z,12.43
2019-04-14T13:11:14.005Z,12.97
2019-04-14T13:16:18.252Z,12.53
2019-04-14T13:21:22.503Z,12.80
2019-04-14T13:26:26.721Z,12.20
2019-04-14T13:31:30.942Z,11.13
2019-04-14T13:36:35.134Z,12.37
2019-04-14T13:41:39.467Z,11.97
2019-04-14T13:46:44.713Z,10.88
2019-04-14T13:51:48.930Z,11.12
2019-04-14T13:56:53.160Z,12.30
2019-04-14T14:01:57.390Z,10.55
2019-04-14T14:07:01.626Z,10.48
2019-04-14T14:12:16.344Z,10.90
2019-04-14T14:17:30.400Z,10.53
2019-04-14T14:22:59.228Z,11.22
2019-04-14T14:27:57.603Z,10.58
2019-04-14T14:33:01.806Z,10.90
2019-04-14T14:38:06.067Z,10.48
2019-04-14T14:43:10.299Z,10.43
2019-04-14T14:48:39.514Z,10.95
2019-04-14T14:53:43.770Z,11.25
2019-04-14T14:58:48.023Z,10.35
2019-04-14T15:03:52.341Z,11.03
2019-04-14T15:08:56.549Z,10.30
2019-04-14T15:14:00.774Z,9.93
2019-04-14T15:19:05.317Z,10.55
2019-04-14T15:24:09.552Z,10.58
2019-04-14T15:29:13.773Z,10.18
2019-04-14T15:34:18.054Z,9.45
2019-04-14T15:39:22.502Z,9.30
2019-04-14T15:44:26.705Z,8.75
2019-04-14T15:49:31.099Z,9.88
2019-04-14T15:54:35.367Z,10.25
2019-04-14T15:59:55.156Z,9.58
2019-04-14T16:05:12.820Z,10.30
2019-04-14T16:10:26.094Z,10.45
2019-04-14T16:15:38.402Z,10.98
2019-04-14T16:20:44.131Z,10.30
2019-04-14T16:26:02.828Z,10.87
2019-04-14T16:31:44.176Z,11.22
2019-04-14T16:36:52.497Z,11.15
2019-04-14T16:41:57.171Z,10.70
2019-04-14T16:47:01.422Z,10.63
2019-04-14T16:52:40.089Z,11.40
2019-04-14T16:58:01.991Z,11.00
2019-04-14T17:03:06.284Z,11.48
2019-04-14T17:08:10.521Z,10.80
2019-04-14T17:13:15.059Z,10.93
2019-04-14T17:18:40.884Z,9.40
2019-04-14T17:23:50.295Z,9.58
2019-04-14T17:29:08.003Z,10.32
2019-04-14T17:34:37.106Z,10.55
2019-04-14T17:40:06.378Z,9.90
2019-04-14T17:45:27.706Z,9.98
2019-04-14T17:50:49.094Z,10.03
2019-04-14T17:56:11.011Z,10.20
2019-04-14T18:01:33.183Z,10.00
2019-04-14T18:06:43.533Z,10.07
2019-04-14T18:12:07.172Z,10.13
2019-04-14T18:17:28.868Z,9.73
2019-04-14T18:22:33.404Z,8.73
2019-04-14T18:27:49.450Z,9.53
2019-04-14T18:33:16.014Z,8.67
2019-04-14T18:38:37.272Z,8.97
2019-04-14T18:44:12.953Z,9.10
2019-04-14T18:49:23.943Z,8.23
2019-04-14T18:54:54.603Z,7.27
2019-04-14T19:00:29.888Z,7.17
2019-04-14T19:05:34.749Z,7.20
2019-04-14T19:10:40.041Z,6.50
2019-04-14T19:15:48.914Z,5.50
2019-04-14T19:20:59.148Z,5.50
2019-04-14T19:26:04.076Z,6.00
2019-04-14T19:31:10.920Z,6.20
2019-04-14T19:36:16.157Z,5.60
2019-04-14T19:41:21.288Z,5.53
2019-04-14T19:46:27.228Z,6.23
2019-04-14T19:51:32.043Z,5.77
2019-04-14T19:56:37.115Z,6.20
2019-04-14T20:01:42.259Z,5.67
2019-04-14T20:06:47.008Z,5.70
2019-04-14T20:11:52.172Z,6.13
2019-04-14T20:17:06.925Z,5.60
2019-04-14T20:22:22.648Z,5.83
2019-04-14T20:27:45.857Z,5.67
2019-04-14T20:32:50.465Z,5.53
2019-04-14T20:37:54.824Z,5.47
2019-04-14T20:42:59.078Z,6.00
2019-04-14T20:48:03.333Z,6.07
2019-04-14T20:53:07.572Z,5.40
2019-04-14T20:58:11.819Z,5.50
2019-04-14T21:03:31.686Z,5.73
2019-04-14T21:08:53.777Z,5.83
2019-04-14T21:14:19.828Z,5.77
2019-04-14T21:19:33.417Z,5.93
2019-04-14T21:24:54.668Z,5.30
2019-04-14T21:30:15.904Z,5.73
2019-04-14T21:35:42.196Z,5.53
2019-04-14T21:40:58.947Z,5.20
2019-04-14T21:46:03.171Z,5.20
2019-04-14T21:51:07.758Z,6.40
2019-04-14T21:56:13.682Z,5.70
2019-04-14T22:01:52.789Z,5.97
2019-04-14T22:06:58.994Z,6.20
2019-04-14T22:12:04.749Z,6.17
2019-04-14T22:17:09.031Z,5.90
2019-04-14T22:22:13.246Z,5.80
2019-04-14T22:27:17.440Z,5.97
2019-04-14T22:32:21.669Z,5.90
2019-04-14T22:37:25.870Z,6.30
2019-04-14T22:42:30.060Z,5.73
2019-04-14T22:47:34.254Z,6.70
2019-04-14T22:52:38.455Z,7.10
2019-04-14T22:57:42.650Z,8.13
2019-04-14T23:02:56.877Z,7.37
2019-04-14T23:08:23.074Z,7.40
2019-04-14T23:13:45.277Z,7.33
2019-04-14T23:18:59.475Z,7.67
2019-04-14T23:24:13.729Z,6.57
2019-04-14T23:29:17.922Z,6.70
2019-04-14T23:34:22.130Z,6.73
2019-04-14T23:39:26.322Z,7.17
2019-04-14T23:44:30.544Z,6.53
2019-04-14T23:49:34.719Z,6.50
2019-04-14T23:54:38.904Z,7.00
2019-04-14T23:59:43.111Z,6.30
